createdAt,value
2018-12-14T00:02:16.886Z,23.57
2018-12-14T00:04:49.960Z,23.62
2018-12-14T00:07:22.679Z,24.97
2018-12-14T00:09:55.328Z,23.47
2018-12-14T00:12:29.562Z,24.33
2018-12-14T00:15:05.889Z,24.23
2018-12-14T00:17:39.588Z,25.17
2018-12-14T00:20:12.128Z,25.83
2018-12-14T00:22:46.184Z,28.83
2018-12-14T00:25:18.944Z,26.00
2018-12-14T00:27:51.747Z,24.45
2018-12-14T00:30:24.700Z,26.40
2018-12-14T00:32:57.503Z,24.03
2018-12-14T00:35:30.949Z,25.87
2018-12-14T00:38:05.077Z,27.33
2018-12-14T00:40:38.262Z,26.60
2018-12-14T00:43:11.537Z,26.07
2018-12-14T00:45:46.250Z,25.07
2018-12-14T00:48:22.369Z,25.20
2018-12-14T00:50:54.931Z,24.60
2018-12-14T00:53:30.523Z,27.20
2018-12-14T00:56:05.586Z,24.97
2018-12-14T00:58:38.239Z,24.83
2018-12-14T01:01:11.132Z,25.07
2018-12-14T01:03:44.733Z,25.07
2018-12-14T01:06:17.363Z,24.60
2018-12-14T01:08:50.396Z,24.17
2018-12-14T01:11:22.880Z,24.77
2018-12-14T01:13:55.652Z,24.27
2018-12-14T01:16:28.648Z,25.37
2018-12-14T01:19:01.283Z,23.50
2018-12-14T01:21:34.079Z,25.67
2018-12-14T01:24:07.048Z,23.00
2018-12-14T01:26:40.680Z,23.13
2018-12-14T01:29:13.224Z,24.90
2018-12-14T01:31:46.431Z,24.53
2018-12-14T01:34:19.700Z,23.60
2018-12-14T01:36:53.353Z,22.53
2018-12-14T01:39:26.435Z,22.00
2018-12-14T01:42:04.678Z,21.10
2018-12-14T01:44:38.581Z,22.92
2018-12-14T01:47:14.474Z,22.30
2018-12-14T01:49:49.254Z,20.80
2018-12-14T01:52:22.380Z,20.10
2018-12-14T01:54:56.383Z,21.00
2018-12-14T01:57:29.334Z,22.57
2018-12-14T02:00:04.002Z,22.03
2018-12-14T02:02:38.063Z,21.47
2018-12-14T02:05:11.156Z,20.07
2018-12-14T02:07:43.758Z,20.30
2018-12-14T02:10:16.920Z,18.55
2018-12-14T02:12:51.134Z,20.93
2018-12-14T02:15:23.763Z,19.10
2018-12-14T02:17:56.756Z,19.57
2018-12-14T02:20:29.725Z,20.10
2018-12-14T02:23:02.387Z,18.67
2018-12-14T02:25:35.394Z,18.03
2018-12-14T02:28:08.399Z,19.70
2018-12-14T02:30:44.532Z,18.47
2018-12-14T02:33:17.613Z,21.20
2018-12-14T02:35:50.296Z,16.98
2018-12-14T02:38:22.948Z,19.73
2018-12-14T02:40:55.875Z,20.20
2018-12-14T02:43:28.556Z,18.93
2018-12-14T02:46:01.275Z,19.30
2018-12-14T02:48:34.514Z,18.87
2018-12-14T02:51:07.219Z,17.77
2018-12-14T02:53:39.817Z,18.83
2018-12-14T02:56:12.820Z,18.03
2018-12-14T02:58:48.813Z,21.70
2018-12-14T03:01:21.643Z,20.13
2018-12-14T03:03:55.081Z,21.77
2018-12-14T03:06:29.379Z,18.00
2018-12-14T03:09:02.993Z,21.87
2018-12-14T03:11:36.870Z,23.37
2018-12-14T03:14:09.376Z,21.67
2018-12-14T03:16:42.940Z,21.47
2018-12-14T03:19:17.162Z,18.70
2018-12-14T03:21:49.699Z,19.17
2018-12-14T03:24:22.375Z,20.03
2018-12-14T03:26:56.450Z,19.63
2018-12-14T03:29:29.675Z,18.97
2018-12-14T03:32:02.270Z,18.97
2018-12-14T03:34:36.894Z,17.60
2018-12-14T03:37:10.266Z,19.27
2018-12-14T03:39:43.468Z,20.43
2018-12-14T03:42:16.536Z,17.53
2018-12-14T03:44:49.899Z,19.00
2018-12-14T03:47:22.744Z,18.83
2018-12-14T03:49:56.871Z,18.57
2018-12-14T03:52:29.499Z,19.10
2018-12-14T03:55:02.959Z,19.20
2018-12-14T03:57:35.828Z,22.07
2018-12-14T04:00:09.473Z,19.30
2018-12-14T04:02:42.258Z,17.50
2018-12-14T04:05:17.571Z,22.00
2018-12-14T04:07:51.238Z,19.63
2018-12-14T04:10:24.630Z,19.23
2018-12-14T04:13:00.813Z,20.67
2018-12-14T04:15:33.559Z,19.33
2018-12-14T04:18:06.327Z,16.90
2018-12-14T04:20:40.260Z,17.17
2018-12-14T04:23:12.896Z,18.47
2018-12-14T04:25:45.680Z,17.53
2018-12-14T04:28:18.694Z,17.63
2018-12-14T04:30:51.200Z,20.53
2018-12-14T04:33:24.000Z,19.07
2018-12-14T04:35:57.164Z,17.83
2018-12-14T04:38:30.033Z,17.02
2018-12-14T04:41:02.803Z,20.27
2018-12-14T04:43:35.809Z,17.27
2018-12-14T04:46:09.003Z,17.93
2018-12-14T04:48:41.682Z,17.73
2018-12-14T04:51:17.104Z,17.17
2018-12-14T04:53:49.967Z,16.73
2018-12-14T04:56:22.539Z,15.70
2018-12-14T04:58:55.453Z,16.17
2018-12-14T05:01:28.105Z,14.85
2018-12-14T05:04:00.765Z,14.30
2018-12-14T05:06:33.916Z,17.40
2018-12-14T05:09:10.559Z,15.90
2018-12-14T05:11:43.113Z,15.83
2018-12-14T05:14:16.556Z,16.43
2018-12-14T05:16:49.081Z,19.40
2018-12-14T05:19:21.695Z,14.68
2018-12-14T05:21:54.867Z,16.03
2018-12-14T05:24:29.272Z,16.30
2018-12-14T05:27:02.322Z,17.43
2018-12-14T05:29:35.353Z,17.53
2018-12-14T05:32:08.560Z,18.37
2018-12-14T05:34:41.240Z,18.50
2018-12-14T05:37:14.190Z,19.37
2018-12-14T05:39:47.441Z,18.52
2018-12-14T05:42:20.802Z,17.60
2018-12-14T05:44:53.901Z,21.20
2018-12-14T05:47:26.675Z,18.97
2018-12-14T05:49:59.329Z,19.37
2018-12-14T05:52:32.280Z,19.77
2018-12-14T05:55:05.509Z,20.73
2018-12-14T05:57:38.079Z,18.90
2018-12-14T06:00:15.000Z,21.42
2018-12-14T06:02:50.001Z,19.83
2018-12-14T06:05:26.543Z,22.63
2018-12-14T06:08:00.263Z,21.30
2018-12-14T06:10:33.618Z,20.67
2018-12-14T06:13:09.039Z,22.47
2018-12-14T06:15:43.551Z,20.50
2018-12-14T06:18:16.879Z,20.97
2018-12-14T06:20:50.405Z,22.03
2018-12-14T06:23:23.742Z,19.80
2018-12-14T06:25:56.785Z,22.13
2018-12-14T06:28:30.424Z,22.50
2018-12-14T06:31:03.703Z,21.37
2018-12-14T06:33:36.930Z,20.97
2018-12-14T06:36:09.516Z,22.63
2018-12-14T06:38:45.016Z,22.00
2018-12-14T06:41:18.650Z,25.77
2018-12-14T06:43:53.637Z,25.17
2018-12-14T06:46:26.364Z,22.43
2018-12-14T06:49:02.073Z,22.23
2018-12-14T06:51:37.583Z,25.23
2018-12-14T06:54:10.454Z,23.77
2018-12-14T06:56:44.948Z,22.23
2018-12-14T06:59:20.579Z,25.67
2018-12-14T07:01:57.243Z,25.87
2018-12-14T07:04:31.356Z,24.80
2018-12-14T07:07:04.363Z,23.77
2018-12-14T07:09:36.964Z,23.93
2018-12-14T07:12:11.505Z,23.00
2018-12-14T07:14:44.552Z,25.13
2018-12-14T07:17:17.244Z,26.00
2018-12-14T07:19:50.631Z,27.80
2018-12-14T07:22:24.223Z,23.80
2018-12-14T07:24:57.406Z,22.47
2018-12-14T07:27:30.384Z,22.90
2018-12-14T07:30:07.181Z,23.02
2018-12-14T07:32:40.562Z,23.97
2018-12-14T07:35:13.377Z,22.57
2018-12-14T07:37:47.270Z,25.33
2018-12-14T07:40:20.623Z,23.87
2018-12-14T07:42:55.804Z,22.03
2018-12-14T07:45:31.496Z,21.70
2018-12-14T07:48:05.329Z,23.97
2018-12-14T07:50:39.330Z,27.77
2018-12-14T07:53:12.143Z,26.00
2018-12-14T07:55:44.877Z,22.90
2018-12-14T07:58:18.644Z,29.33
2018-12-14T08:00:52.572Z,23.73
2018-12-14T08:03:27.416Z,25.75
2018-12-14T08:06:00.356Z,25.73
2018-12-14T08:08:34.080Z,24.63
2018-12-14T08:11:09.599Z,26.73
2018-12-14T08:13:44.084Z,24.63
2018-12-14T08:16:18.054Z,25.73
2018-12-14T08:18:50.834Z,23.30
2018-12-14T08:21:23.962Z,23.27
2018-12-14T08:23:58.582Z,26.00
2018-12-14T08:26:31.422Z,24.13
2018-12-14T08:29:04.632Z,26.43
2018-12-14T08:31:37.341Z,23.00
2018-12-14T08:34:11.776Z,25.80
2018-12-14T08:36:44.915Z,25.77
2018-12-14T08:39:18.516Z,24.57
2018-12-14T08:41:51.121Z,27.50
2018-12-14T08:44:23.969Z,25.97
2018-12-14T08:46:58.879Z,26.67
2018-12-14T08:49:32.111Z,22.23
2018-12-14T08:52:06.206Z,28.90
2018-12-14T08:54:39.989Z,25.97
2018-12-14T08:57:12.721Z,26.60
2018-12-14T08:59:45.531Z,24.70
2018-12-14T09:02:18.527Z,23.57
2018-12-14T09:04:51.341Z,25.87
2018-12-14T09:07:25.264Z,25.53
2018-12-14T09:10:00.415Z,26.23
2018-12-14T09:12:33.360Z,24.63
2018-12-14T09:15:07.019Z,26.93
2018-12-14T09:17:39.989Z,25.03
2018-12-14T09:20:12.723Z,24.60
2018-12-14T09:22:46.436Z,26.17
2018-12-14T09:25:22.521Z,28.05
2018-12-14T09:27:58.906Z,26.20
2018-12-14T09:30:33.981Z,27.80
2018-12-14T09:33:08.301Z,22.83
2018-12-14T09:35:42.205Z,24.67
2018-12-14T09:38:16.094Z,23.63
2018-12-14T09:40:54.584Z,22.90
2018-12-14T09:43:28.918Z,26.43
2018-12-14T09:46:02.358Z,25.60
2018-12-14T09:48:35.680Z,23.48
2018-12-14T09:51:12.665Z,26.33
2018-12-14T09:53:47.783Z,27.50
2018-12-14T09:56:22.065Z,23.97
2018-12-14T09:58:54.654Z,25.10
2018-12-14T10:01:30.367Z,22.48
2018-12-14T10:04:04.409Z,25.70
2018-12-14T10:06:37.640Z,26.90
2018-12-14T10:09:11.171Z,26.70
2018-12-14T10:11:44.829Z,25.20
2018-12-14T10:14:21.504Z,24.93
2018-12-14T10:16:56.864Z,23.90
2018-12-14T10:19:29.505Z,24.07
2018-12-14T10:22:02.560Z,24.20
2018-12-14T10:24:35.672Z,26.23
2018-12-14T10:27:09.260Z,24.87
2018-12-14T10:29:44.184Z,22.63
2018-12-14T10:32:18.074Z,23.07
2018-12-14T10:34:54.479Z,23.97
2018-12-14T10:37:28.607Z,24.10
2018-12-14T10:40:02.842Z,26.83
2018-12-14T10:42:36.200Z,27.43
2018-12-14T10:45:18.829Z,23.60
2018-12-14T10:47:58.579Z,23.87
2018-12-14T10:50:39.217Z,24.67
2018-12-14T10:53:13.850Z,20.55
2018-12-14T10:55:46.357Z,22.83
2018-12-14T10:58:20.777Z,20.27
2018-12-14T11:00:59.425Z,20.23
2018-12-14T11:03:34.245Z,19.23
2018-12-14T11:06:07.531Z,20.73
2018-12-14T11:08:41.290Z,17.97
2018-12-14T11:11:15.281Z,15.80
2018-12-14T11:13:51.705Z,17.87
2018-12-14T11:16:24.352Z,21.53
2018-12-14T11:18:57.347Z,17.60
2018-12-14T11:21:30.002Z,16.23
2018-12-14T11:24:04.560Z,17.50
2018-12-14T11:26:37.585Z,18.23
2018-12-14T11:29:14.986Z,16.10
2018-12-14T11:31:47.843Z,16.27
2018-12-14T11:34:29.551Z,14.73
2018-12-14T11:37:04.928Z,13.23
2018-12-14T11:39:41.640Z,11.75
2018-12-14T11:42:15.164Z,12.07
2018-12-14T11:44:48.468Z,11.43
2018-12-14T11:47:28.170Z,23.53
2018-12-14T11:50:01.776Z,11.63
2018-12-14T11:52:35.316Z,10.60
2018-12-14T11:55:33.872Z,12.93
2018-12-14T11:58:12.852Z,12.07
2018-12-14T12:00:45.780Z,14.93
2018-12-14T12:03:20.732Z,12.80
2018-12-14T12:05:54.870Z,11.87
2018-12-14T12:08:30.078Z,11.40
2018-12-14T12:11:04.660Z,15.17
2018-12-14T12:13:38.309Z,10.13
2018-12-14T12:16:11.709Z,13.33
2018-12-14T12:18:46.319Z,9.43
2018-12-14T12:21:23.548Z,9.90
2018-12-14T12:23:58.308Z,10.67
2018-12-14T12:26:33.923Z,11.17
2018-12-14T12:29:09.505Z,10.60
2018-12-14T12:31:46.016Z,10.50
2018-12-14T12:34:23.414Z,11.37
2018-12-14T12:36:57.232Z,11.80
2018-12-14T12:39:32.321Z,10.50
2018-12-14T12:42:08.668Z,11.10
2018-12-14T12:44:46.634Z,13.20
2018-12-14T12:47:21.818Z,13.13
2018-12-14T12:49:58.579Z,10.97
2018-12-14T12:52:32.443Z,10.70
2018-12-14T12:55:05.724Z,12.03
2018-12-14T12:57:39.485Z,13.10
2018-12-14T13:00:14.188Z,11.33
2018-12-14T13:02:47.736Z,10.17
2018-12-14T13:05:20.703Z,12.60
2018-12-14T13:07:54.404Z,17.77
2018-12-14T13:10:28.098Z,11.60
2018-12-14T13:13:02.896Z,10.95
2018-12-14T13:15:37.081Z,12.90
2018-12-14T13:18:15.620Z,12.73
2018-12-14T13:20:49.452Z,10.43
2018-12-14T13:23:30.209Z,11.00
2018-12-14T13:26:03.803Z,13.07
2018-12-14T13:28:37.429Z,12.07
2018-12-14T13:31:10.132Z,11.80
2018-12-14T13:33:43.556Z,10.40
2018-12-14T13:36:18.688Z,8.37
2018-12-14T13:38:52.261Z,10.03
2018-12-14T13:41:24.952Z,11.23
2018-12-14T13:43:59.729Z,10.97
2018-12-14T13:46:33.981Z,10.67
2018-12-14T13:49:06.865Z,10.43
2018-12-14T13:51:40.659Z,10.37
2018-12-14T13:54:15.842Z,11.33
2018-12-14T13:56:49.464Z,11.27
2018-12-14T13:59:22.704Z,13.00
2018-12-14T14:01:57.981Z,9.87
2018-12-14T14:04:35.857Z,10.30
2018-12-14T14:07:10.096Z,10.83
2018-12-14T14:09:44.527Z,11.03
2018-12-14T14:12:19.644Z,9.03
2018-12-14T14:14:54.227Z,8.83
2018-12-14T14:17:31.303Z,10.23
2018-12-14T14:20:09.607Z,10.35
2018-12-14T14:23:00.299Z,10.23
2018-12-14T14:25:36.001Z,9.45
2018-12-14T14:28:10.783Z,9.75
2018-12-14T14:30:45.255Z,11.70
2018-12-14T14:33:19.137Z,10.30
2018-12-14T14:35:51.915Z,10.73
2018-12-14T14:38:26.344Z,11.40
2018-12-14T14:41:01.730Z,11.10
2018-12-14T14:43:39.083Z,13.10
2018-12-14T14:46:13.970Z,11.53
2018-12-14T14:48:51.935Z,10.33
2018-12-14T14:51:28.810Z,10.95
2018-12-14T14:54:05.509Z,11.77
2018-12-14T14:56:43.107Z,11.07
2018-12-14T14:59:17.517Z,12.30
2018-12-14T15:01:59.513Z,12.80
2018-12-14T15:04:33.799Z,11.60
2018-12-14T15:07:10.703Z,12.07
2018-12-14T15:09:45.781Z,11.37
2018-12-14T15:12:24.845Z,10.23
2018-12-14T15:14:58.540Z,11.93
2018-12-14T15:17:33.261Z,11.23
2018-12-14T15:20:08.424Z,13.60
2018-12-14T15:22:44.000Z,11.70
2018-12-14T15:25:18.616Z,10.43
2018-12-14T15:27:53.721Z,14.33
2018-12-14T15:30:26.695Z,15.67
2018-12-14T15:32:59.819Z,13.23
2018-12-14T15:35:33.570Z,10.25
2018-12-14T15:38:08.575Z,11.80
2018-12-14T15:40:43.937Z,14.10
2018-12-14T15:43:17.547Z,10.53
2018-12-14T15:45:51.073Z,11.50
2018-12-14T15:48:24.734Z,12.60
2018-12-14T15:51:01.147Z,12.13
2018-12-14T15:53:34.706Z,12.20
2018-12-14T15:56:12.411Z,11.70
2018-12-14T15:58:51.822Z,12.60
2018-12-14T16:01:27.208Z,16.10
2018-12-14T16:04:00.140Z,15.10
2018-12-14T16:06:34.971Z,13.67
2018-12-14T16:09:09.024Z,13.53
2018-12-14T16:11:45.352Z,12.68
2018-12-14T16:14:20.446Z,13.27
2018-12-14T16:16:54.324Z,12.63
2018-12-14T16:19:27.082Z,13.57
2018-12-14T16:22:05.645Z,13.97
2018-12-14T16:24:38.396Z,17.17
2018-12-14T16:27:12.495Z,17.30
2018-12-14T16:29:46.223Z,17.67
2018-12-14T16:32:20.801Z,20.10
2018-12-14T16:35:05.737Z,17.58
2018-12-14T16:37:43.092Z,17.70
2018-12-14T16:40:18.387Z,18.13
2018-12-14T16:42:52.781Z,17.77
2018-12-14T16:45:28.228Z,17.17
2018-12-14T16:48:01.277Z,20.80
2018-12-14T16:50:36.579Z,19.40
2018-12-14T16:53:10.384Z,20.40
2018-12-14T16:55:43.886Z,22.60
2018-12-14T16:58:18.912Z,16.57
2018-12-14T17:00:55.054Z,20.03
2018-12-14T17:03:32.617Z,19.35
2018-12-14T17:06:09.532Z,18.40
2018-12-14T17:08:45.147Z,17.40
2018-12-14T17:11:20.004Z,18.53
2018-12-14T17:13:56.372Z,20.03
2018-12-14T17:16:30.289Z,20.57
2018-12-14T17:19:04.818Z,16.83
2018-12-14T17:21:43.746Z,18.63
2018-12-14T17:24:20.894Z,19.80
2018-12-14T17:26:57.034Z,22.30
2018-12-14T17:29:31.271Z,21.37
2018-12-14T17:32:04.738Z,18.97
2018-12-14T17:34:40.460Z,21.93
2018-12-14T17:37:13.256Z,22.17
2018-12-14T17:39:48.460Z,20.97
2018-12-14T17:42:21.029Z,21.23
2018-12-14T17:44:54.944Z,23.70
2018-12-14T17:47:28.056Z,25.20
2018-12-14T17:50:01.947Z,22.80
2018-12-14T17:52:39.035Z,20.23
2018-12-14T17:55:14.655Z,23.63
2018-12-14T17:57:48.560Z,23.20
2018-12-14T18:00:22.835Z,28.20
2018-12-14T18:02:57.732Z,20.90
2018-12-14T18:05:33.471Z,20.53
2018-12-14T18:08:08.123Z,19.67
2018-12-14T18:10:41.461Z,17.83
2018-12-14T18:13:15.977Z,15.57
2018-12-14T18:15:49.314Z,15.57
2018-12-14T18:18:24.496Z,15.97
2018-12-14T18:21:07.773Z,14.53
2018-12-14T18:23:42.559Z,14.97
2018-12-14T18:26:16.190Z,15.37
2018-12-14T18:28:50.729Z,15.43
2018-12-14T18:31:27.363Z,13.62
2018-12-14T18:34:01.694Z,16.33
2018-12-14T18:36:35.888Z,13.13
2018-12-14T18:39:10.782Z,13.50
2018-12-14T18:41:49.392Z,14.83
2018-12-14T18:44:23.254Z,13.73
2018-12-14T18:46:58.013Z,13.03
2018-12-14T18:49:32.128Z,13.40
2018-12-14T18:52:04.847Z,16.60
2018-12-14T18:54:47.692Z,15.10
2018-12-14T18:57:20.653Z,12.43
2018-12-14T18:59:58.604Z,14.50
2018-12-14T19:02:40.453Z,12.57
2018-12-14T19:05:14.973Z,15.13
2018-12-14T19:07:52.002Z,15.93
2018-12-14T19:10:26.532Z,12.93
2018-12-14T19:13:10.332Z,12.77
2018-12-14T19:15:45.390Z,13.47
2018-12-14T19:18:21.833Z,11.40
2018-12-14T19:20:55.089Z,11.50
2018-12-14T19:23:31.655Z,13.60
2018-12-14T19:26:06.108Z,12.00
2018-12-14T19:28:41.398Z,12.53
2018-12-14T19:31:19.043Z,11.33
2018-12-14T19:33:54.887Z,12.80
2018-12-14T19:36:29.784Z,11.50
2018-12-14T19:39:09.473Z,12.53
2018-12-14T19:41:43.840Z,11.30
2018-12-14T19:44:19.216Z,16.27
2018-12-14T19:46:54.515Z,13.40
2018-12-14T19:49:31.074Z,11.93
2018-12-14T19:52:10.674Z,14.77
2018-12-14T19:54:51.495Z,13.50
2018-12-14T19:57:25.213Z,12.10
2018-12-14T20:00:00.986Z,11.00
2018-12-14T20:02:49.709Z,11.90
2018-12-14T20:05:22.713Z,13.37
2018-12-14T20:07:56.820Z,12.30
2018-12-14T20:10:32.714Z,12.30
2018-12-14T20:13:09.286Z,11.90
2018-12-14T20:15:42.811Z,12.43
2018-12-14T20:18:17.189Z,13.30
2018-12-14T20:20:50.433Z,10.77
2018-12-14T20:23:26.905Z,10.77
2018-12-14T20:26:16.200Z,10.88
2018-12-14T20:28:59.700Z,13.27
2018-12-14T20:31:34.467Z,10.90
2018-12-14T20:34:10.432Z,10.73
2018-12-14T20:36:47.603Z,11.33
2018-12-14T20:39:25.290Z,13.70
2018-12-14T20:42:00.190Z,14.00
2018-12-14T20:44:34.546Z,12.27
2018-12-14T20:47:15.271Z,11.97
2018-12-14T20:49:47.927Z,11.83
2018-12-14T20:52:23.863Z,10.67
2018-12-14T20:55:00.836Z,13.80
2018-12-14T20:57:35.653Z,11.00
2018-12-14T21:00:16.579Z,10.82
2018-12-14T21:02:54.641Z,11.53
2018-12-14T21:05:30.726Z,11.67
2018-12-14T21:08:03.548Z,12.13
2018-12-14T21:10:36.096Z,11.87
2018-12-14T21:13:11.599Z,12.60
2018-12-14T21:15:48.930Z,12.37
2018-12-14T21:18:23.501Z,11.93
2018-12-14T21:20:58.717Z,10.43
2018-12-14T21:23:32.014Z,12.57
2018-12-14T21:26:05.591Z,10.57
2018-12-14T21:28:40.386Z,10.40
2018-12-14T21:31:14.662Z,10.43
2018-12-14T21:33:49.431Z,10.50
2018-12-14T21:36:22.493Z,10.97
2018-12-14T21:38:55.236Z,10.80
2018-12-14T21:41:31.764Z,11.23
2018-12-14T21:44:09.867Z,10.90
2018-12-14T21:46:46.174Z,9.97
2018-12-14T21:49:20.684Z,11.37
2018-12-14T21:51:56.578Z,10.82
2018-12-14T21:54:32.212Z,11.07
2018-12-14T21:57:16.036Z,10.00
2018-12-14T21:59:51.589Z,9.90
2018-12-14T22:02:25.385Z,10.20
2018-12-14T22:04:59.639Z,10.20
2018-12-14T22:07:33.988Z,9.93
2018-12-14T22:10:10.637Z,8.93
2018-12-14T22:12:46.805Z,9.87
2018-12-14T22:15:25.247Z,9.60
2018-12-14T22:17:59.935Z,10.50
2018-12-14T22:20:41.495Z,9.33
2018-12-14T22:23:16.491Z,10.07
2018-12-14T22:25:49.949Z,9.73
2018-12-14T22:28:25.202Z,8.77
2018-12-14T22:30:59.644Z,9.23
2018-12-14T22:33:33.067Z,9.23
2018-12-14T22:36:07.103Z,9.83
2018-12-14T22:38:46.819Z,10.07
2018-12-14T22:41:20.476Z,8.18
2018-12-14T22:43:53.613Z,9.03
2018-12-14T22:46:26.644Z,8.30
2018-12-14T22:48:59.892Z,9.63
2018-12-14T22:51:37.159Z,9.93
2018-12-14T22:54:13.623Z,9.50
2018-12-14T22:56:50.946Z,10.20
2018-12-14T22:59:24.773Z,11.40
2018-12-14T23:02:00.137Z,11.83
2018-12-14T23:04:35.857Z,11.13
2018-12-14T23:07:17.210Z,10.60
2018-12-14T23:09:50.480Z,11.10
2018-12-14T23:12:26.978Z,10.07
2018-12-14T23:15:04.270Z,9.70
2018-12-14T23:17:36.985Z,9.80
2018-12-14T23:20:09.968Z,9.37
2018-12-14T23:22:43.487Z,9.93
2018-12-14T23:25:16.222Z,8.83
2018-12-14T23:27:53.537Z,9.67
2018-12-14T23:30:26.333Z,10.07
2018-12-14T23:33:00.103Z,8.67
2018-12-14T23:35:33.079Z,7.87
2018-12-14T23:38:06.716Z,10.70
2018-12-14T23:40:44.038Z,11.73
2018-12-14T23:43:32.892Z,8.97
2018-12-14T23:46:05.912Z,8.93
2018-12-14T23:48:39.913Z,9.57
2018-12-14T23:51:13.918Z,10.33
2018-12-14T23:53:47.309Z,9.00
2018-12-14T23:56:21.549Z,9.60
2018-12-14T23:58:54.938Z,9.05
